createdAt,value
2018-07-09T00:00:26.165Z,1018.87
2018-07-09T00:01:26.163Z,1018.87
2018-07-09T00:02:26.194Z,1018.87
2018-07-09T00:03:26.158Z,1018.82
2018-07-09T00:04:26.161Z,1018.86
2018-07-09T00:05:26.161Z,1018.92
2018-07-09T00:06:26.156Z,1018.92
2018-07-09T00:07:26.155Z,1018.94
2018-07-09T00:08:26.152Z,1018.92
2018-07-09T00:09:26.151Z,1018.93
2018-07-09T00:10:26.156Z,1018.91
2018-07-09T00:11:26.155Z,1018.97
2018-07-09T00:12:26.154Z,1018.97
2018-07-09T00:13:26.152Z,1018.99
2018-07-09T00:14:26.171Z,1018.97
2018-07-09T00:15:26.147Z,1018.97
2018-07-09T00:16:26.145Z,1018.98
2018-07-09T00:17:26.145Z,1018.94
2018-07-09T00:18:26.148Z,1019.00
2018-07-09T00:19:26.151Z,1019.00
2018-07-09T00:20:26.144Z,1018.99
2018-07-09T00:21:26.140Z,1018.99
2018-07-09T00:22:26.145Z,1018.97
2018-07-09T00:23:26.144Z,1018.98
2018-07-09T00:24:26.141Z,1018.99
2018-07-09T00:25:26.140Z,1018.99
2018-07-09T00:26:26.135Z,1018.96
2018-07-09T00:27:26.137Z,1019.04
2018-07-09T00:28:26.132Z,1019.02
2018-07-09T00:29:26.131Z,1019.07
2018-07-09T00:30:26.136Z,1019.02
2018-07-09T00:31:26.135Z,1019.04
2018-07-09T00:32:26.137Z,1019.06
2018-07-09T00:33:26.135Z,1019.04
2018-07-09T00:34:26.131Z,1019.00
2018-07-09T00:35:26.126Z,1019.04
2018-07-09T00:36:26.128Z,1019.04
2018-07-09T00:37:26.126Z,1019.02
2018-07-09T00:38:26.121Z,1019.05
2018-07-09T00:39:26.120Z,1019.07
2018-07-09T00:40:26.119Z,1019.05
2018-07-09T00:41:26.120Z,1019.02
2018-07-09T00:42:26.122Z,1019.04
2018-07-09T00:43:26.120Z,1019.01
2018-07-09T00:44:26.118Z,1019.00
2018-07-09T00:45:26.117Z,1019.02
2018-07-09T00:46:26.110Z,1019.00
2018-07-09T00:47:26.109Z,1019.07
2018-07-09T00:48:26.107Z,1019.06
2018-07-09T00:49:26.106Z,1019.08
2018-07-09T00:50:26.110Z,1019.06
2018-07-09T00:51:26.108Z,1019.09
2018-07-09T00:52:26.102Z,1019.14
2018-07-09T00:53:26.100Z,1019.12
2018-07-09T00:54:26.104Z,1019.13
2018-07-09T00:55:26.107Z,1019.05
2018-07-09T00:56:26.102Z,1019.03
2018-07-09T00:57:26.101Z,1019.07
2018-07-09T00:58:26.097Z,1019.07
2018-07-09T00:59:26.096Z,1019.08
2018-07-09T01:00:26.092Z,1019.08
2018-07-09T01:01:26.090Z,1019.13
2018-07-09T01:02:26.093Z,1019.12
2018-07-09T01:03:26.091Z,1019.11
2018-07-09T01:04:26.089Z,1019.06
2018-07-09T01:05:26.088Z,1019.10
2018-07-09T01:06:26.082Z,1019.10
2018-07-09T01:07:26.124Z,1019.10
2018-07-09T01:08:26.083Z,1019.08
2018-07-09T01:09:26.082Z,1019.10
2018-07-09T01:10:26.077Z,1019.10
2018-07-09T01:11:26.076Z,1019.11
2018-07-09T01:12:26.074Z,1019.08
2018-07-09T01:13:26.072Z,1019.06
2018-07-09T01:14:26.075Z,1019.05
2018-07-09T01:15:26.074Z,1019.01
2018-07-09T01:16:26.072Z,1019.06
2018-07-09T01:17:26.070Z,1019.04
2018-07-09T01:18:26.063Z,1019.04
2018-07-09T01:19:26.062Z,1019.06
2018-07-09T01:20:26.158Z,1019.00
2018-07-09T01:21:26.059Z,1018.98
2018-07-09T01:22:26.061Z,1018.97
2018-07-09T01:23:26.062Z,1018.97
2018-07-09T01:24:26.053Z,1018.97
2018-07-09T01:25:26.056Z,1018.95
2018-07-09T01:26:26.055Z,1019.00
2018-07-09T01:27:26.053Z,1019.02
2018-07-09T01:28:26.053Z,1018.94
2018-07-09T01:29:26.051Z,1018.98
2018-07-09T01:30:26.044Z,1018.97
2018-07-09T01:31:26.044Z,1018.93
2018-07-09T01:32:26.043Z,1018.95
2018-07-09T01:33:26.038Z,1018.95
2018-07-09T01:34:26.043Z,1018.92
2018-07-09T01:35:26.040Z,1018.90
2018-07-09T01:36:26.039Z,1018.93
2018-07-09T01:37:26.037Z,1018.93
2018-07-09T01:38:26.032Z,1018.99
2018-07-09T01:39:26.029Z,1019.02
2018-07-09T01:40:26.031Z,1018.93
2018-07-09T01:41:26.033Z,1018.92
2018-07-09T01:42:26.024Z,1018.92
2018-07-09T01:43:26.023Z,1018.92
2018-07-09T01:44:26.019Z,1018.92
2018-07-09T01:45:26.018Z,1018.95
2018-07-09T01:46:26.021Z,1018.96
2018-07-09T01:47:26.019Z,1018.94
2018-07-09T01:48:26.017Z,1018.92
2018-07-09T01:49:26.016Z,1018.93
2018-07-09T01:50:26.011Z,1018.95
2018-07-09T01:51:26.012Z,1018.93
2018-07-09T01:52:26.008Z,1018.88
2018-07-09T01:53:26.005Z,1018.95
2018-07-09T01:54:26.007Z,1018.89
2018-07-09T01:55:26.006Z,1018.85
2018-07-09T01:56:25.999Z,1018.85
2018-07-09T01:57:25.997Z,1018.85
2018-07-09T01:58:26.000Z,1018.83
2018-07-09T01:59:25.997Z,1018.82
2018-07-09T02:00:25.997Z,1018.76
2018-07-09T02:01:25.993Z,1018.76
2018-07-09T02:02:25.988Z,1018.79
2018-07-09T02:03:25.985Z,1018.79
2018-07-09T02:04:25.982Z,1018.78
2018-07-09T02:05:25.981Z,1018.78
2018-07-09T02:06:25.984Z,1018.84
2018-07-09T02:07:25.983Z,1018.84
2018-07-09T02:08:25.981Z,1018.83
2018-07-09T02:09:25.979Z,1018.84
2018-07-09T02:10:25.971Z,1018.87
2018-07-09T02:11:25.970Z,1018.90
2018-07-09T02:12:25.972Z,1018.88
2018-07-09T02:13:25.976Z,1018.91
2018-07-09T02:14:25.968Z,1018.91
2018-07-09T02:15:25.962Z,1018.89
2018-07-09T02:16:25.959Z,1018.97
2018-07-09T02:17:25.956Z,1018.97
2018-07-09T02:18:25.959Z,1018.91
2018-07-09T02:19:25.960Z,1019.01
2018-07-09T02:20:25.957Z,1019.00
2018-07-09T02:21:25.953Z,1018.95
2018-07-09T02:22:25.947Z,1018.89
2018-07-09T02:23:25.946Z,1018.81
2018-07-09T02:24:25.943Z,1018.84
2018-07-09T02:25:25.941Z,1018.83
2018-07-09T02:26:25.943Z,1018.84
2018-07-09T02:27:25.942Z,1018.86
2018-07-09T02:28:25.934Z,1018.83
2018-07-09T02:29:25.932Z,1018.83
2018-07-09T02:30:25.935Z,1018.82
2018-07-09T02:31:25.933Z,1018.79
2018-07-09T02:32:25.930Z,1018.87
2018-07-09T02:33:25.930Z,1018.83
2018-07-09T02:34:25.922Z,1018.82
2018-07-09T02:35:25.919Z,1018.84
2018-07-09T02:36:25.917Z,1018.82
2018-07-09T02:37:25.913Z,1018.85
2018-07-09T02:38:25.918Z,1018.86
2018-07-09T02:39:25.917Z,1018.84
2018-07-09T02:40:25.911Z,1018.85
2018-07-09T02:41:25.911Z,1018.80
2018-07-09T02:42:25.902Z,1018.84
2018-07-09T02:43:25.901Z,1018.86
2018-07-09T02:44:25.902Z,1018.90
2018-07-09T02:45:25.902Z,1018.88
2018-07-09T02:46:25.892Z,1018.95
2018-07-09T02:47:25.890Z,1018.95
2018-07-09T02:48:25.887Z,1018.91
2018-07-09T02:49:25.888Z,1018.90
2018-07-09T02:50:25.889Z,1018.89
2018-07-09T02:51:25.888Z,1018.85
2018-07-09T02:52:25.884Z,1018.84
2018-07-09T02:53:25.879Z,1018.80
2018-07-09T02:54:25.873Z,1018.82
2018-07-09T02:55:25.872Z,1018.85
2018-07-09T02:56:25.868Z,1018.85
2018-07-09T02:57:25.867Z,1018.81
2018-07-09T02:58:25.867Z,1018.84
2018-07-09T02:59:25.866Z,1018.83
2018-07-09T03:00:25.857Z,1018.90
2018-07-09T03:01:25.854Z,1018.91
2018-07-09T03:02:25.856Z,1018.92
2018-07-09T03:03:25.856Z,1018.92
2018-07-09T03:04:25.851Z,1018.90
2018-07-09T03:05:25.850Z,1018.91
2018-07-09T03:06:25.844Z,1018.95
2018-07-09T03:07:25.841Z,1018.95
2018-07-09T03:08:25.839Z,1018.93
2018-07-09T03:09:25.836Z,1018.93
2018-07-09T03:10:25.839Z,1018.91
2018-07-09T03:11:25.835Z,1018.95
2018-07-09T03:12:25.831Z,1018.93
2018-07-09T03:13:25.829Z,1019.01
2018-07-09T03:14:25.822Z,1018.98
2018-07-09T03:15:25.821Z,1018.97
2018-07-09T03:16:25.821Z,1018.98
2018-07-09T03:17:25.818Z,1019.03
2018-07-09T03:18:25.811Z,1019.02
2018-07-09T03:19:25.812Z,1018.97
2018-07-09T03:20:25.805Z,1018.94
2018-07-09T03:21:25.805Z,1018.93
2018-07-09T03:22:25.804Z,1018.95
2018-07-09T03:23:25.802Z,1018.94
2018-07-09T03:24:25.798Z,1018.97
2018-07-09T03:25:25.797Z,1018.96
2018-07-09T03:26:25.789Z,1018.95
2018-07-09T03:27:25.788Z,1018.97
2018-07-09T03:28:25.783Z,1018.98
2018-07-09T03:29:25.779Z,1018.95
2018-07-09T03:30:25.783Z,1018.97
2018-07-09T03:31:25.782Z,1018.97
2018-07-09T03:32:25.771Z,1018.93
2018-07-09T03:33:25.768Z,1018.94
2018-07-09T03:34:25.769Z,1018.95
2018-07-09T03:35:25.767Z,1018.98
2018-07-09T03:36:25.765Z,1019.01
2018-07-09T03:37:25.763Z,1019.00
2018-07-09T03:38:25.757Z,1019.03
2018-07-09T03:39:25.752Z,1018.98
2018-07-09T03:40:25.748Z,1019.02
2018-07-09T03:41:25.746Z,1019.03
2018-07-09T03:42:25.748Z,1018.99
2018-07-09T03:43:25.746Z,1018.95
2018-07-09T03:44:25.740Z,1018.96
2018-07-09T03:45:25.738Z,1018.98
2018-07-09T03:46:25.732Z,1019.01
2018-07-09T03:47:25.728Z,1018.97
2018-07-09T03:48:25.729Z,1019.02
2018-07-09T03:49:25.728Z,1019.03
2018-07-09T03:50:25.719Z,1019.13
2018-07-09T03:51:25.717Z,1019.19
2018-07-09T03:52:25.714Z,1019.17
2018-07-09T03:53:25.711Z,1019.18
2018-07-09T03:54:25.714Z,1019.20
2018-07-09T03:55:25.711Z,1019.21
2018-07-09T03:56:25.707Z,1019.24
2018-07-09T03:57:25.705Z,1019.27
2018-07-09T03:58:25.696Z,1019.26
2018-07-09T03:59:25.694Z,1019.31
2018-07-09T04:00:25.690Z,1019.27
2018-07-09T04:01:25.689Z,1019.30
2018-07-09T04:02:25.688Z,1019.33
2018-07-09T04:03:25.686Z,1019.33
2018-07-09T04:04:25.681Z,1019.35
2018-07-09T04:05:25.675Z,1019.34
2018-07-09T04:06:25.677Z,1019.33
2018-07-09T04:07:25.675Z,1019.31
2018-07-09T04:08:25.672Z,1019.27
2018-07-09T04:09:25.670Z,1019.26
2018-07-09T04:10:25.662Z,1019.30
2018-07-09T04:11:25.660Z,1019.31
2018-07-09T04:12:25.655Z,1019.33
2018-07-09T04:13:25.653Z,1019.29
2018-07-09T04:14:25.656Z,1019.33
2018-07-09T04:15:25.653Z,1019.31
2018-07-09T04:16:25.648Z,1019.31
2018-07-09T04:17:25.645Z,1019.32
2018-07-09T04:18:25.641Z,1019.34
2018-07-09T04:19:25.636Z,1019.35
2018-07-09T04:20:25.637Z,1019.26
2018-07-09T04:21:25.634Z,1019.30
2018-07-09T04:22:25.630Z,1019.33
2018-07-09T04:23:25.625Z,1019.37
2018-07-09T04:24:25.622Z,1019.40
2018-07-09T04:25:25.623Z,1019.33
2018-07-09T04:26:25.628Z,1019.38
2018-07-09T04:27:25.618Z,1019.40
2018-07-09T04:28:25.615Z,1019.43
2018-07-09T04:29:25.613Z,1019.46
2018-07-09T04:30:25.605Z,1019.48
2018-07-09T04:31:25.607Z,1019.52
2018-07-09T04:32:25.601Z,1019.49
2018-07-09T04:33:25.599Z,1019.48
2018-07-09T04:34:25.600Z,1019.52
2018-07-09T04:35:25.597Z,1019.52
2018-07-09T04:36:25.589Z,1019.59
2018-07-09T04:37:25.588Z,1019.54
2018-07-09T04:38:25.589Z,1019.55
2018-07-09T04:39:25.588Z,1019.57
2018-07-09T04:40:25.584Z,1019.52
2018-07-09T04:41:25.581Z,1019.54
2018-07-09T04:42:25.575Z,1019.52
2018-07-09T04:43:25.572Z,1019.44
2018-07-09T04:44:25.569Z,1019.47
2018-07-09T04:45:25.568Z,1019.40
2018-07-09T04:46:25.570Z,1019.43
2018-07-09T04:47:25.568Z,1019.47
2018-07-09T04:48:25.565Z,1019.45
2018-07-09T04:49:25.565Z,1019.49
2018-07-09T04:50:25.555Z,1019.52
2018-07-09T04:51:25.553Z,1019.49
2018-07-09T04:52:25.554Z,1019.44
2018-07-09T04:53:25.620Z,1019.47
2018-07-09T04:54:25.546Z,1019.48
2018-07-09T04:55:25.546Z,1019.47
2018-07-09T04:56:25.541Z,1019.51
2018-07-09T04:57:25.539Z,1019.53
2018-07-09T04:58:25.541Z,1019.60
2018-07-09T04:59:25.541Z,1019.60
2018-07-09T05:00:25.537Z,1019.63
2018-07-09T05:01:25.534Z,1019.70
2018-07-09T05:02:25.529Z,1019.70
2018-07-09T05:03:25.527Z,1019.82
2018-07-09T05:04:25.557Z,1019.87
2018-07-09T05:05:25.523Z,1019.92
2018-07-09T05:06:25.527Z,1020.02
2018-07-09T05:07:25.527Z,1020.12
2018-07-09T05:08:25.520Z,1020.24
2018-07-09T05:09:25.519Z,1020.36
2018-07-09T05:10:25.524Z,1020.45
2018-07-09T05:11:25.524Z,1020.53
2018-07-09T05:12:25.526Z,1020.58
2018-07-09T05:13:25.522Z,1020.62
2018-07-09T05:14:25.522Z,1020.64
2018-07-09T05:15:25.521Z,1020.68
2018-07-09T05:16:25.518Z,1020.73
2018-07-09T05:17:25.520Z,1020.74
2018-07-09T05:18:25.527Z,1020.78
2018-07-09T05:19:25.531Z,1020.82
2018-07-09T05:20:25.532Z,1020.82
2018-07-09T05:21:25.531Z,1020.80
2018-07-09T05:22:25.529Z,1020.82
2018-07-09T05:23:25.535Z,1020.88
2018-07-09T05:24:25.538Z,1020.85
2018-07-09T05:25:25.542Z,1020.89
2018-07-09T05:26:25.540Z,1020.93
2018-07-09T05:27:25.543Z,1021.00
2018-07-09T05:28:25.546Z,1020.95
2018-07-09T05:29:25.550Z,1020.92
2018-07-09T05:30:25.558Z,1020.91
2018-07-09T05:31:25.562Z,1020.92
2018-07-09T05:32:25.565Z,1020.90
2018-07-09T05:33:25.570Z,1020.87
2018-07-09T05:34:25.570Z,1020.92
2018-07-09T05:35:25.574Z,1020.94
2018-07-09T05:36:25.586Z,1020.92
2018-07-09T05:37:25.587Z,1020.96
2018-07-09T05:38:25.596Z,1020.93
2018-07-09T05:39:25.600Z,1021.00
2018-07-09T05:40:25.609Z,1020.96
2018-07-09T05:41:25.605Z,1021.03
2018-07-09T05:42:25.616Z,1021.06
2018-07-09T05:43:25.622Z,1021.08
2018-07-09T05:44:25.625Z,1021.04
2018-07-09T05:45:25.631Z,1021.07
2018-07-09T05:46:25.631Z,1021.07
2018-07-09T05:47:25.639Z,1021.12
2018-07-09T05:48:25.644Z,1021.15
2018-07-09T05:49:25.651Z,1021.13
2018-07-09T05:50:25.661Z,1021.16
2018-07-09T05:51:25.668Z,1021.13
2018-07-09T05:52:25.672Z,1021.16
2018-07-09T05:53:25.684Z,1021.20
2018-07-09T05:54:25.681Z,1021.19
2018-07-09T05:55:25.687Z,1021.21
2018-07-09T05:56:25.696Z,1021.30
2018-07-09T05:57:25.703Z,1021.24
2018-07-09T05:58:25.705Z,1021.25
2018-07-09T05:59:25.712Z,1021.20
2018-07-09T06:00:25.717Z,1021.23
2018-07-09T06:01:25.724Z,1021.28
2018-07-09T06:02:25.736Z,1021.27
2018-07-09T06:03:25.742Z,1021.27
2018-07-09T06:04:25.747Z,1021.24
2018-07-09T06:05:25.804Z,1021.26
2018-07-09T06:06:25.758Z,1021.27
2018-07-09T06:07:25.765Z,1021.30
2018-07-09T06:08:25.770Z,1021.25
2018-07-09T06:09:25.779Z,1021.28
2018-07-09T06:10:25.790Z,1021.28
2018-07-09T06:11:25.800Z,1021.27
2018-07-09T06:12:25.802Z,1021.27
2018-07-09T06:13:25.806Z,1021.31
2018-07-09T06:14:25.820Z,1021.25
2018-07-09T06:15:25.828Z,1021.23
2018-07-09T06:16:25.836Z,1021.29
2018-07-09T06:17:25.844Z,1021.31
2018-07-09T06:18:25.849Z,1021.32
2018-07-09T06:19:25.955Z,1021.30
2018-07-09T06:20:25.864Z,1021.32
2018-07-09T06:21:25.884Z,1021.32
2018-07-09T06:22:25.887Z,1021.32
2018-07-09T06:23:25.896Z,1021.39
2018-07-09T06:24:25.903Z,1021.33
2018-07-09T06:25:25.969Z,1021.42
2018-07-09T06:26:25.920Z,1021.40
2018-07-09T06:27:25.927Z,1021.38
2018-07-09T06:28:25.940Z,1021.40
2018-07-09T06:29:25.950Z,1021.37
2018-07-09T06:30:25.956Z,1021.40
2018-07-09T06:31:25.971Z,1021.39
2018-07-09T06:32:25.978Z,1021.40
2018-07-09T06:33:25.986Z,1021.41
2018-07-09T06:34:26.002Z,1021.46
2018-07-09T06:35:26.011Z,1021.43
2018-07-09T06:36:26.022Z,1021.48
2018-07-09T06:37:26.033Z,1021.46
2018-07-09T06:38:26.039Z,1021.51
2018-07-09T06:39:26.048Z,1021.47
2018-07-09T06:40:26.063Z,1021.47
2018-07-09T06:41:26.069Z,1021.53
2018-07-09T06:42:26.085Z,1021.56
2018-07-09T06:43:26.095Z,1021.60
2018-07-09T06:44:26.101Z,1021.63
2018-07-09T06:45:26.113Z,1021.68
2018-07-09T06:46:26.129Z,1021.64
2018-07-09T06:47:26.140Z,1021.64
2018-07-09T06:48:26.152Z,1021.70
2018-07-09T06:49:26.165Z,1021.70
2018-07-09T06:50:26.170Z,1021.71
2018-07-09T06:51:26.182Z,1021.69
2018-07-09T06:52:26.192Z,1021.69
2018-07-09T06:53:26.205Z,1021.66
2018-07-09T06:54:26.220Z,1021.67
2018-07-09T06:55:26.231Z,1021.65
2018-07-09T06:56:26.243Z,1021.66
2018-07-09T06:57:26.254Z,1021.65
2018-07-09T06:58:26.261Z,1021.68
2018-07-09T06:59:26.273Z,1021.65
2018-07-09T07:00:26.287Z,1021.70
2018-07-09T07:01:26.298Z,1021.75
2018-07-09T07:02:26.372Z,1021.72
2018-07-09T07:03:26.316Z,1021.75
2018-07-09T07:04:26.328Z,1021.74
2018-07-09T07:05:26.343Z,1021.77
2018-07-09T07:06:26.354Z,1021.74
2018-07-09T07:07:26.367Z,1021.77
2018-07-09T07:08:26.377Z,1021.75
2018-07-09T07:09:26.389Z,1021.71
2018-07-09T07:10:26.397Z,1021.72
2018-07-09T07:11:26.409Z,1021.77
2018-07-09T07:12:26.422Z,1021.73
2018-07-09T07:13:26.434Z,1021.76
2018-07-09T07:14:26.588Z,1021.84
2018-07-09T07:15:26.466Z,1021.82
2018-07-09T07:16:26.471Z,1021.90
2018-07-09T07:17:26.482Z,1021.95
2018-07-09T07:18:26.501Z,1021.94
2018-07-09T07:19:26.514Z,1021.86
2018-07-09T07:20:26.527Z,1021.87
2018-07-09T07:21:26.539Z,1021.86
2018-07-09T07:22:26.547Z,1021.89
2018-07-09T07:23:26.561Z,1021.83
2018-07-09T07:24:26.574Z,1021.88
2018-07-09T07:25:26.587Z,1021.90
2018-07-09T07:26:26.646Z,1021.85
2018-07-09T07:27:26.620Z,1021.84
2018-07-09T07:28:26.633Z,1021.82
2018-07-09T07:29:26.647Z,1021.90
2018-07-09T07:30:26.657Z,1021.85
2018-07-09T07:31:26.670Z,1021.80
2018-07-09T07:32:26.687Z,1021.84
2018-07-09T07:33:26.703Z,1021.87
2018-07-09T07:34:26.712Z,1021.73
2018-07-09T07:35:26.727Z,1021.53
2018-07-09T07:36:26.742Z,1021.52
2018-07-09T07:37:26.755Z,1021.41
2018-07-09T07:38:26.774Z,1021.80
2018-07-09T07:39:26.849Z,1021.56
2018-07-09T07:40:26.803Z,1021.73
2018-07-09T07:41:26.818Z,1021.10
2018-07-09T07:42:26.828Z,1021.90
2018-07-09T07:43:26.846Z,1021.57
2018-07-09T07:44:26.858Z,1021.53
2018-07-09T07:45:26.873Z,1021.63
2018-07-09T07:46:26.894Z,1021.70
2018-07-09T07:47:26.909Z,1021.66
2018-07-09T07:48:26.918Z,1021.73
2018-07-09T07:49:26.933Z,1020.68
2018-07-09T07:50:27.105Z,1020.95
2018-07-09T07:51:26.975Z,1021.19
2018-07-09T07:52:26.982Z,1021.11
2018-07-09T07:53:26.998Z,1021.75
2018-07-09T07:54:27.009Z,1021.77
2018-07-09T07:55:27.026Z,1021.78
2018-07-09T07:56:27.044Z,1021.78
2018-07-09T07:57:27.061Z,1021.72
2018-07-09T07:58:27.070Z,1021.68
2018-07-09T07:59:27.085Z,1021.65
2018-07-09T08:00:27.100Z,1021.64
2018-07-09T08:01:27.116Z,1021.65
2018-07-09T08:02:27.136Z,1021.58
2018-07-09T08:03:27.151Z,1021.44
2018-07-09T08:04:27.162Z,1021.43
2018-07-09T08:05:27.178Z,1020.61
2018-07-09T08:06:27.200Z,1020.57
2018-07-09T08:07:27.216Z,1020.55
2018-07-09T08:08:27.232Z,1020.58
2018-07-09T08:09:27.441Z,1020.55
2018-07-09T08:10:27.258Z,1020.51
2018-07-09T08:11:47.731Z,1020.53
2018-07-09T08:13:28.507Z,1020.36
2018-07-09T08:14:27.326Z,1020.39
2018-07-09T08:15:27.346Z,1020.44
2018-07-09T08:16:27.355Z,1020.42
2018-07-09T08:17:27.372Z,1020.40
2018-07-09T08:18:27.385Z,1020.44
2018-07-09T08:19:27.399Z,1020.34
2018-07-09T08:20:27.417Z,1020.31
2018-07-09T08:21:27.434Z,1020.18
2018-07-09T08:22:27.443Z,1020.34
2018-07-09T08:23:27.459Z,1020.24
2018-07-09T08:24:27.473Z,1020.14
2018-07-09T08:25:27.499Z,1020.16
2018-07-09T08:26:27.508Z,1020.10
2018-07-09T08:27:27.522Z,1020.12
2018-07-09T08:28:27.536Z,1020.07
2018-07-09T08:29:27.551Z,1020.03
2018-07-09T08:30:27.575Z,1020.16
2018-07-09T08:31:27.650Z,1020.17
2018-07-09T08:32:27.603Z,1020.24
2018-07-09T08:33:27.599Z,1020.41
2018-07-09T08:34:27.617Z,1020.38
2018-07-09T08:35:27.630Z,1020.43
2018-07-09T08:36:27.637Z,1020.39
2018-07-09T08:37:27.651Z,1020.32
2018-07-09T08:38:27.668Z,1020.33
2018-07-09T08:39:27.682Z,1020.38
2018-07-09T08:40:27.695Z,1020.42
2018-07-09T08:41:27.710Z,1020.42
2018-07-09T08:42:27.719Z,1020.45
2018-07-09T08:43:27.740Z,1020.49
2018-07-09T08:44:27.748Z,1020.47
2018-07-09T08:45:27.761Z,1020.44
2018-07-09T08:46:27.786Z,1020.44
2018-07-09T08:47:27.865Z,1020.42
2018-07-09T08:48:27.811Z,1020.48
2018-07-09T08:49:27.826Z,1020.45
2018-07-09T08:50:27.843Z,1020.43
2018-07-09T08:51:27.854Z,1020.31
2018-07-09T08:52:27.874Z,1020.40
2018-07-09T08:53:27.889Z,1020.26
2018-07-09T08:54:27.900Z,1020.20
2018-07-09T08:55:27.918Z,1020.40
2018-07-09T08:56:27.934Z,1020.37
2018-07-09T08:57:27.950Z,1020.34
2018-07-09T08:58:27.972Z,1020.23
2018-07-09T08:59:27.988Z,1020.17
2018-07-09T09:00:28.003Z,1020.10
2018-07-09T09:01:28.020Z,1020.04
2018-07-09T09:02:28.031Z,1020.12
2018-07-09T09:03:28.048Z,1020.10
2018-07-09T09:04:28.072Z,1020.14
2018-07-09T09:05:28.082Z,1020.20
2018-07-09T09:06:28.099Z,1019.99
2018-07-09T09:07:28.118Z,1019.91
2018-07-09T09:08:28.126Z,1019.91
2018-07-09T09:09:28.141Z,1019.91
2018-07-09T09:10:28.237Z,1019.81
2018-07-09T09:11:28.177Z,1019.75
2018-07-09T09:12:28.191Z,1019.70
2018-07-09T09:13:28.207Z,1019.68
2018-07-09T09:14:28.216Z,1019.64
2018-07-09T09:15:28.230Z,1019.68
2018-07-09T09:16:28.250Z,1019.66
2018-07-09T09:17:28.257Z,1019.65
2018-07-09T09:18:28.274Z,1019.63
2018-07-09T09:19:28.289Z,1019.62
2018-07-09T09:20:28.301Z,1019.59
2018-07-09T09:21:28.313Z,1019.61
2018-07-09T09:22:28.321Z,1019.61
2018-07-09T09:23:28.336Z,1019.63
2018-07-09T09:24:28.353Z,1019.66
2018-07-09T09:25:28.368Z,1019.64
2018-07-09T09:26:28.370Z,1019.64
2018-07-09T09:27:28.401Z,1019.66
2018-07-09T09:28:28.398Z,1019.66
2018-07-09T09:29:28.404Z,1019.73
2018-07-09T09:30:28.421Z,1019.75
2018-07-09T09:31:28.482Z,1019.71
2018-07-09T09:32:28.442Z,1019.75
2018-07-09T09:33:28.454Z,1019.72
2018-07-09T09:34:28.460Z,1019.74
2018-07-09T09:35:28.472Z,1019.78
2018-07-09T09:36:28.483Z,1019.80
2018-07-09T09:37:28.553Z,1019.77
2018-07-09T09:38:28.509Z,1019.72
2018-07-09T09:39:28.522Z,1019.78
2018-07-09T09:40:28.528Z,1019.87
2018-07-09T09:41:28.540Z,1019.89
2018-07-09T09:42:28.560Z,1019.86
2018-07-09T09:43:28.570Z,1019.85
2018-07-09T09:44:28.580Z,1019.96
2018-07-09T09:45:28.592Z,1019.97
2018-07-09T09:46:28.604Z,1020.02
2018-07-09T09:47:28.617Z,1019.99
2018-07-09T09:48:28.627Z,1020.00
2018-07-09T09:49:28.680Z,1019.99
2018-07-09T09:50:28.661Z,1019.95
2018-07-09T09:51:28.676Z,1019.94
2018-07-09T09:52:28.692Z,1019.92
2018-07-09T09:53:28.705Z,1019.84
2018-07-09T09:54:28.714Z,1019.96
2018-07-09T09:55:28.732Z,1019.96
2018-07-09T09:56:28.750Z,1019.97
2018-07-09T09:57:28.770Z,1019.95
2018-07-09T09:58:28.777Z,1019.94
2018-07-09T09:59:28.793Z,1019.92
2018-07-09T10:00:28.825Z,1019.85
2018-07-09T10:01:28.825Z,1019.90
2018-07-09T10:02:28.845Z,1019.88
2018-07-09T10:03:28.861Z,1019.86
2018-07-09T10:04:28.876Z,1019.80
2018-07-09T10:05:28.894Z,1019.87
2018-07-09T10:06:28.927Z,1019.81
2018-07-09T10:07:28.920Z,1019.81
2018-07-09T10:08:28.968Z,1019.77
2018-07-09T10:09:28.953Z,1019.82
2018-07-09T10:10:28.975Z,1019.78
2018-07-09T10:11:28.992Z,1019.75
2018-07-09T10:12:29.004Z,1019.74
2018-07-09T10:13:29.019Z,1019.64
2018-07-09T10:14:29.041Z,1019.56
2018-07-09T10:15:29.058Z,1019.59
2018-07-09T10:16:29.076Z,1019.53
2018-07-09T10:17:29.093Z,1019.61
2018-07-09T10:18:29.104Z,1019.61
2018-07-09T10:19:29.123Z,1019.56
2018-07-09T10:20:29.136Z,1019.77
2018-07-09T10:21:29.153Z,1019.75
2018-07-09T10:22:29.175Z,1019.70
2018-07-09T10:23:29.244Z,1019.72
2018-07-09T10:24:29.203Z,1019.71
2018-07-09T10:25:29.219Z,1019.64
2018-07-09T10:26:29.232Z,1019.66
2018-07-09T10:27:29.247Z,1019.65
2018-07-09T10:28:29.267Z,1019.60
2018-07-09T10:29:29.282Z,1019.67
2018-07-09T10:30:29.358Z,1019.59
2018-07-09T10:31:29.312Z,1019.57
2018-07-09T10:32:29.326Z,1019.50
2018-07-09T10:33:29.342Z,1019.54
2018-07-09T10:34:29.362Z,1019.45
2018-07-09T10:35:29.380Z,1019.49
2018-07-09T10:36:29.396Z,1019.48
2018-07-09T10:37:29.410Z,1019.42
2018-07-09T10:38:29.426Z,1019.47
2018-07-09T10:39:29.458Z,1019.43
2018-07-09T10:40:29.454Z,1019.42
2018-07-09T10:41:29.470Z,1019.42
2018-07-09T10:42:29.491Z,1019.42
2018-07-09T10:43:29.511Z,1019.38
2018-07-09T10:44:29.519Z,1019.35
2018-07-09T10:45:29.539Z,1019.37
2018-07-09T10:46:29.558Z,1019.31
2018-07-09T10:47:29.573Z,1019.26
2018-07-09T10:48:29.590Z,1019.24
2018-07-09T10:49:29.606Z,1019.26
2018-07-09T10:50:29.617Z,1019.23
2018-07-09T10:51:29.634Z,1019.12
2018-07-09T10:52:29.647Z,1019.14
2018-07-09T10:53:29.663Z,1019.12
2018-07-09T10:54:29.684Z,1019.10
2018-07-09T10:55:29.699Z,1019.00
2018-07-09T10:56:29.712Z,1019.05
2018-07-09T10:57:29.727Z,1018.98
2018-07-09T10:58:29.738Z,1018.93
2018-07-09T10:59:29.751Z,1018.86
2018-07-09T11:00:29.769Z,1018.88
2018-07-09T11:01:29.784Z,1018.85
2018-07-09T11:02:29.793Z,1018.82
2018-07-09T11:03:29.806Z,1018.79
2018-07-09T11:04:29.817Z,1018.82
2018-07-09T11:05:29.829Z,1018.80
2018-07-09T11:06:29.846Z,1018.87
2018-07-09T11:07:29.858Z,1018.82
2018-07-09T11:08:29.867Z,1018.81
2018-07-09T11:09:29.879Z,1018.79
2018-07-09T11:10:29.886Z,1018.78
2018-07-09T11:11:29.895Z,1018.80
2018-07-09T11:12:29.905Z,1018.77
2018-07-09T11:13:29.915Z,1018.77
2018-07-09T11:14:29.930Z,1018.82
2018-07-09T11:15:29.938Z,1018.78
2018-07-09T11:16:29.944Z,1018.76
2018-07-09T11:17:29.953Z,1018.74
2018-07-09T11:18:29.966Z,1018.79
2018-07-09T11:19:29.975Z,1018.76
2018-07-09T11:20:29.980Z,1018.76
2018-07-09T11:21:30.005Z,1018.73
2018-07-09T11:22:29.994Z,1018.74
2018-07-09T11:23:30.004Z,1018.74
2018-07-09T11:24:30.009Z,1018.78
2018-07-09T11:25:30.019Z,1018.75
2018-07-09T11:26:30.030Z,1018.75
2018-07-09T11:27:30.039Z,1018.71
2018-07-09T11:28:30.046Z,1018.69
2018-07-09T11:29:30.053Z,1018.73
2018-07-09T11:30:30.056Z,1018.73
2018-07-09T11:31:30.064Z,1018.73
2018-07-09T11:32:30.076Z,1018.74
2018-07-09T11:33:30.085Z,1018.71
2018-07-09T11:34:30.087Z,1018.71
2018-07-09T11:35:30.099Z,1018.67
2018-07-09T11:36:30.131Z,1018.74
2018-07-09T11:37:30.110Z,1018.69
2018-07-09T11:38:30.123Z,1018.64
2018-07-09T11:39:30.130Z,1018.65
2018-07-09T11:40:30.137Z,1018.64
2018-07-09T11:41:30.149Z,1018.60
2018-07-09T11:42:30.154Z,1018.64
2018-07-09T11:43:30.160Z,1018.65
2018-07-09T11:44:30.164Z,1018.63
2018-07-09T11:45:30.173Z,1018.66
2018-07-09T11:46:30.188Z,1018.62
2018-07-09T11:47:30.195Z,1018.66
2018-07-09T11:48:30.197Z,1018.62
2018-07-09T11:49:30.205Z,1018.66
2018-07-09T11:50:30.225Z,1018.66
2018-07-09T11:51:30.225Z,1018.69
2018-07-09T11:52:30.231Z,1018.63
2018-07-09T11:53:30.240Z,1018.64
2018-07-09T11:54:30.243Z,1018.56
2018-07-09T11:55:30.250Z,1018.52
2018-07-09T11:56:30.257Z,1018.63
2018-07-09T11:57:30.265Z,1018.56
2018-07-09T11:58:30.308Z,1018.52
2018-07-09T11:59:30.289Z,1018.55
2018-07-09T12:00:30.293Z,1018.49
2018-07-09T12:01:30.301Z,1018.54
2018-07-09T12:02:30.302Z,1018.51
2018-07-09T12:03:30.309Z,1018.45
2018-07-09T12:04:30.324Z,1018.45
2018-07-09T12:05:30.329Z,1018.46
2018-07-09T12:06:30.331Z,1018.45